Map

Track Data

SID SEASON NUMBER BASIN SUBBASIN NAME ISO_TIME NATURE LAT LON WMO_WIND WMO_PRES WMO_AGENCY TRACK_TYPE DIST2LAND LANDFALL IFLAG USA_AGENCY USA_ATCF_ID USA_LAT USA_LON USA_RECORD USA_STATUS USA_WIND USA_PRES USA_SSHS USA_R34_NE USA_R34_SE USA_R34_SW USA_R34_NW USA_R50_NE USA_R50_SE USA_R50_SW USA_R50_NW USA_R64_NE USA_R64_SE USA_R64_SW USA_R64_NW USA_POCI USA_ROCI USA_RMW USA_EYE TOKYO_LAT TOKYO_LON TOKYO_GRADE TOKYO_WIND TOKYO_PRES TOKYO_R50_DIR TOKYO_R50_LONG TOKYO_R50_SHORT TOKYO_R30_DIR TOKYO_R30_LONG TOKYO_R30_SHORT TOKYO_LAND CMA_LAT CMA_LON CMA_CAT CMA_WIND CMA_PRES HKO_LAT HKO_LON HKO_CAT HKO_WIND HKO_PRES NEWDELHI_LAT NEWDELHI_LON NEWDELHI_GRADE NEWDELHI_WIND NEWDELHI_PRES NEWDELHI_CI NEWDELHI_DP NEWDELHI_POCI REUNION_LAT REUNION_LON REUNION_TYPE REUNION_WIND REUNION_PRES REUNION_TNUM REUNION_CI REUNION_RMW REUNION_R34_NE REUNION_R34_SE REUNION_R34_SW REUNION_R34_NW REUNION_R50_NE REUNION_R50_SE REUNION_R50_SW REUNION_R50_NW REUNION_R64_NE REUNION_R64_SE REUNION_R64_SW REUNION_R64_NW BOM_LAT BOM_LON BOM_TYPE BOM_WIND BOM_PRES BOM_TNUM BOM_CI BOM_RMW BOM_R34_NE BOM_R34_SE BOM_R34_SW BOM_R34_NW BOM_R50_NE BOM_R50_SE BOM_R50_SW BOM_R50_NW BOM_R64_NE BOM_R64_SE BOM_R64_SW BOM_R64_NW BOM_ROCI BOM_POCI BOM_EYE BOM_POS_METHOD BOM_PRES_METHOD NADI_LAT NADI_LON NADI_CAT NADI_WIND NADI_PRES WELLINGTON_LAT WELLINGTON_LON WELLINGTON_WIND WELLINGTON_PRES DS824_LAT DS824_LON DS824_STAGE DS824_WIND DS824_PRES TD9636_LAT TD9636_LON TD9636_STAGE TD9636_WIND TD9636_PRES TD9635_LAT TD9635_LON TD9635_WIND TD9635_PRES TD9635_ROCI NEUMANN_LAT NEUMANN_LON NEUMANN_CLASS NEUMANN_WIND NEUMANN_PRES MLC_LAT MLC_LON MLC_CLASS MLC_WIND MLC_PRES USA_GUST BOM_GUST BOM_GUST_PER REUNION_GUST REUNION_GUST_PER USA_SEAHGT USA_SEARAD_NE USA_SEARAD_SE USA_SEARAD_SW USA_SEARAD_NW STORM_SPEED STORM_DIR
1986323N23297 1986 111 NA NA FRANCES 1986-11-18 18:00:00 TS 22.8000 -62.8000 30 1009 hurdat_atl main 571 571 O_____________ hurdat_atl AL101986 22.8000 -62.8000 TD 30 1009 -1 8 353
1986323N23297 1986 111 NA NA FRANCES 1986-11-18 21:00:00 TS 23.1825 -62.8574 main 605 605 P_____________ AL101986 23.1825 -62.8574 TD 30 1008 -1 7 353
1986323N23297 1986 111 NA NA FRANCES 1986-11-19 00:00:00 TS 23.5000 -62.9000 30 1008 hurdat_atl main 635 635 O_____________ hurdat_atl AL101986 23.5000 -62.9000 TD 30 1008 -1 5 354
1986323N23297 1986 111 NA NA FRANCES 1986-11-19 03:00:00 TS 23.7150 -62.9150 main 655 655 P_____________ AL101986 23.7150 -62.9150 TD 32 1007 -1 4 0
1986323N23297 1986 111 NA NA FRANCES 1986-11-19 06:00:00 TS 23.9000 -62.9000 35 1007 hurdat_atl main 675 675 O_____________ hurdat_atl AL101986 23.9000 -62.9000 TS 35 1007 0 4 8
1986323N23297 1986 111 NA NA FRANCES 1986-11-19 09:00:00 TS 24.1500 -62.8575 main 706 706 P_____________ AL101986 24.1500 -62.8575 TS 37 1006 0 5 10
1986323N23297 1986 111 NA NA FRANCES 1986-11-19 12:00:00 TS 24.4000 -62.8000 40 1006 hurdat_atl main 730 730 O_____________ hurdat_atl AL101986 24.4000 -62.8000 TS 40 1006 0 4 10
1986323N23297 1986 111 NA NA FRANCES 1986-11-19 15:00:00 TS 24.5624 -62.7870 main 751 751 P_____________ AL101986 24.5624 -62.7870 TS 45 1005 0 4 12
1986323N23297 1986 111 NA NA FRANCES 1986-11-19 18:00:00 TS 24.8000 -62.7000 50 1004 hurdat_atl main 775 775 O_____________ hurdat_atl AL101986 24.8000 -62.7000 TS 50 1004 0 7 23
1986323N23297 1986 111 NA NA FRANCES 1986-11-19 21:00:00 TS 25.2398 -62.4746 main 824 824 P_____________ AL101986 25.2398 -62.4746 TS 52 1003 0 11 28
1986323N23297 1986 111 NA NA FRANCES 1986-11-20 00:00:00 TS 25.8000 -62.1000 55 1002 hurdat_atl main 902 902 O_____________ hurdat_atl AL101986 25.8000 -62.1000 TS 55 1002 0 14 34
1986323N23297 1986 111 NA NA FRANCES 1986-11-20 03:00:00 TS 26.4149 -61.6103 main 984 984 P_____________ AL101986 26.4149 -61.6103 TS 60 1001 0 16 39
1986323N23297 1986 111 NA NA FRANCES 1986-11-20 06:00:00 TS 27.0000 -61.0000 65 1001 hurdat_atl main 1070 1070 O_____________ hurdat_atl AL101986 27.0000 -61.0000 HU 65 1001 1 16 49
1986323N23297 1986 111 NA NA FRANCES 1986-11-20 09:00:00 TS 27.4379 -60.2848 main 1142 1142 P_____________ AL101986 27.4379 -60.2848 HU 70 1000 1 15 57
1986323N23297 1986 111 NA NA FRANCES 1986-11-20 12:00:00 TS 27.8000 -59.6000 75 1000 hurdat_atl main 1216 1216 O_____________ hurdat_atl AL101986 27.8000 -59.6000 HU 75 1000 1 13 56
1986323N23297 1986 111 NA NA FRANCES 1986-11-20 15:00:00 TS 28.1646 -59.0821 main 1279 1279 P_____________ AL101986 28.1646 -59.0821 HU 75 1000 1 11 49
1986323N23297 1986 111 NA NA FRANCES 1986-11-20 18:00:00 TS 28.5000 -58.7000 75 1000 hurdat_atl main 1329 1329 O_____________ hurdat_atl AL101986 28.5000 -58.7000 HU 75 1000 1 9 43
1986323N23297 1986 111 NA NA FRANCES 1986-11-20 21:00:00 TS 28.8073 -58.3972 main 1373 1373 P_____________ AL101986 28.8073 -58.3972 HU 72 1000 1 7 36
1986323N23297 1986 111 NA NA FRANCES 1986-11-21 00:00:00 TS 29.1000 -58.2000 70 1001 hurdat_atl main 1412 1412 O_____________ hurdat_atl AL101986 29.1000 -58.2000 HU 70 1001 1 7 26
1986323N23297 1986 111 NA NA FRANCES 1986-11-21 03:00:00 TS 29.3924 -58.0698 main 1445 1445 P_____________ AL101986 29.3924 -58.0698 HU 67 1001 1 6 16
1986323N23297 1986 111 NA NA FRANCES 1986-11-21 06:00:00 TS 29.7000 -58.0000 65 1002 hurdat_atl main 1478 1478 O_____________ hurdat_atl AL101986 29.7000 -58.0000 HU 65 1002 1 7 10
1986323N23297 1986 111 NA NA FRANCES 1986-11-21 09:00:00 TS 30.0425 -57.9350 main 1511 1511 P_____________ AL101986 30.0425 -57.9350 HU 60 1002 0 7 7
1986323N23297 1986 111 NA NA FRANCES 1986-11-21 12:00:00 TS 30.4000 -57.9000 55 1003 hurdat_atl main 1549 1549 O_____________ hurdat_atl AL101986 30.4000 -57.9000 TS 55 1003 0 7 3
1986323N23297 1986 111 NA NA FRANCES 1986-11-21 15:00:00 TS 30.7525 -57.8925 main 1556 1526 P_____________ AL101986 30.7525 -57.8925 TS 50 1004 0 7 0
1986323N23297 1986 111 NA NA FRANCES 1986-11-21 18:00:00 TS 31.1000 -57.9000 45 1005 hurdat_atl main 1526 O_____________ hurdat_atl AL101986 31.1000 -57.9000 TS 45 1005 0 7 0

About IBTrACS Database

This database is a web-friendly format of International Best Track Archive for Climate Stewardship (IBTrACS), a global best track data archive curated by NOAA dating back to 1842.

Updated: 2021-12-06